createdAt,value
2017-10-02T00:00:28.158Z,14.70
2017-10-02T00:02:56.250Z,16.27
2017-10-02T00:05:25.104Z,17.20
2017-10-02T00:07:53.206Z,12.90
2017-10-02T00:10:22.048Z,15.60
2017-10-02T00:12:50.126Z,17.93
2017-10-02T00:15:18.212Z,15.03
2017-10-02T00:17:46.298Z,15.40
2017-10-02T00:20:15.152Z,14.70
2017-10-02T00:22:43.234Z,15.97
2017-10-02T00:25:11.323Z,12.93
2017-10-02T00:27:39.408Z,14.50
2017-10-02T00:30:08.267Z,11.90
2017-10-02T00:32:36.351Z,10.60
2017-10-02T00:35:04.443Z,8.70
2017-10-02T00:37:33.286Z,13.73
2017-10-02T00:40:01.384Z,14.80
2017-10-02T00:42:29.462Z,15.80
2017-10-02T00:44:58.323Z,18.73
2017-10-02T00:47:26.409Z,18.73
2017-10-02T00:49:54.490Z,14.13
2017-10-02T00:52:23.344Z,17.87
2017-10-02T00:54:51.419Z,18.87
2017-10-02T00:57:19.508Z,14.67
2017-10-02T00:59:47.591Z,18.57
2017-10-02T01:02:16.447Z,18.43
2017-10-02T01:04:44.527Z,17.80
2017-10-02T01:07:12.612Z,18.97
2017-10-02T01:09:41.464Z,19.87
2017-10-02T01:12:09.555Z,19.33
2017-10-02T01:14:37.640Z,20.50
2017-10-02T01:17:05.729Z,20.40
2017-10-02T01:19:34.584Z,19.83
2017-10-02T01:22:02.680Z,17.27
2017-10-02T01:24:31.530Z,16.60
2017-10-02T01:26:59.614Z,18.80
2017-10-02T01:29:27.691Z,20.80
2017-10-02T01:31:55.779Z,20.10
2017-10-02T01:34:24.642Z,18.50
2017-10-02T01:36:52.728Z,17.13
2017-10-02T01:39:21.575Z,21.63
2017-10-02T01:41:49.654Z,20.37
2017-10-02T01:44:17.740Z,21.70
2017-10-02T01:46:45.820Z,22.43
2017-10-02T01:49:13.901Z,21.07
2017-10-02T01:51:42.742Z,21.93
2017-10-02T01:54:10.839Z,21.13
2017-10-02T01:56:38.927Z,20.40
2017-10-02T01:59:07.162Z,21.07
2017-10-02T02:01:35.251Z,22.10
2017-10-02T02:04:03.339Z,23.20
2017-10-02T02:06:31.429Z,24.93
2017-10-02T02:09:00.281Z,19.40
2017-10-02T02:11:28.375Z,23.00
2017-10-02T02:13:57.221Z,24.30
2017-10-02T02:16:25.866Z,21.10
2017-10-02T02:18:53.959Z,20.23
2017-10-02T02:21:22.043Z,20.63
2017-10-02T02:23:50.139Z,21.87
2017-10-02T02:26:18.228Z,21.17
2017-10-02T02:28:47.070Z,15.80
2017-10-02T02:31:15.159Z,10.10
2017-10-02T02:33:43.235Z,8.13
2017-10-02T02:36:11.316Z,9.07
2017-10-02T02:38:39.386Z,8.83
2017-10-02T02:41:07.476Z,22.67
2017-10-02T02:43:36.312Z,21.03
2017-10-02T02:46:04.400Z,22.33
2017-10-02T02:48:32.479Z,14.73
2017-10-02T02:51:00.573Z,10.30
2017-10-02T02:53:29.414Z,8.83
2017-10-02T02:55:57.500Z,9.33
2017-10-02T02:58:25.586Z,8.60
2017-10-02T03:00:54.440Z,7.90
2017-10-02T03:03:22.516Z,8.60
2017-10-02T03:05:50.601Z,9.77
2017-10-02T03:08:18.687Z,10.50
2017-10-02T03:10:46.767Z,10.33
2017-10-02T03:13:15.634Z,10.80
2017-10-02T03:15:43.703Z,9.93
2017-10-02T03:18:11.786Z,9.43
2017-10-02T03:20:39.851Z,8.13
2017-10-02T03:23:07.934Z,7.20
2017-10-02T03:25:36.010Z,8.40
2017-10-02T03:28:04.147Z,7.60
2017-10-02T03:30:32.222Z,8.53
2017-10-02T03:33:00.404Z,9.10
2017-10-02T03:35:28.486Z,16.73
2017-10-02T03:37:57.337Z,8.87
2017-10-02T03:40:25.414Z,10.80
2017-10-02T03:42:53.491Z,8.63
2017-10-02T03:45:21.589Z,12.13
2017-10-02T03:47:50.435Z,20.70
2017-10-02T03:50:18.526Z,20.13
2017-10-02T03:52:46.616Z,16.80
2017-10-02T03:55:15.466Z,24.50
2017-10-02T03:57:43.547Z,22.27
2017-10-02T04:00:11.633Z,27.93
2017-10-02T04:02:39.712Z,28.53
2017-10-02T04:05:08.613Z,28.43
2017-10-02T04:07:36.689Z,31.50
2017-10-02T04:10:04.911Z,25.70
2017-10-02T04:12:33.007Z,31.40
2017-10-02T04:15:01.092Z,24.67
2017-10-02T04:17:29.174Z,32.00
2017-10-02T04:19:57.311Z,34.80
2017-10-02T04:22:25.403Z,38.80
2017-10-02T04:24:54.247Z,32.13
2017-10-02T04:27:22.334Z,32.93
2017-10-02T04:29:50.419Z,32.70
2017-10-02T04:32:18.518Z,35.20
2017-10-02T04:34:47.368Z,37.00
2017-10-02T04:37:15.456Z,30.43
2017-10-02T04:39:44.379Z,30.80
2017-10-02T04:42:12.511Z,35.83
2017-10-02T04:44:41.362Z,36.10
2017-10-02T04:47:09.466Z,36.63
2017-10-02T04:49:38.554Z,36.27
2017-10-02T04:52:06.644Z,40.20
2017-10-02T04:54:35.496Z,35.27
2017-10-02T04:57:03.578Z,28.13
2017-10-02T04:59:31.666Z,39.17
2017-10-02T05:01:59.747Z,36.63
2017-10-02T05:04:28.601Z,37.50
2017-10-02T05:06:56.695Z,35.47
2017-10-02T05:09:24.766Z,33.30
2017-10-02T05:11:52.852Z,30.57
2017-10-02T05:14:21.714Z,39.53
2017-10-02T05:16:49.787Z,41.30
2017-10-02T05:19:17.872Z,34.50
2017-10-02T05:21:46.720Z,39.13
2017-10-02T05:24:14.809Z,34.63
2017-10-02T05:26:42.893Z,36.50
2017-10-02T05:29:10.976Z,35.13
2017-10-02T05:31:40.351Z,34.23
2017-10-02T05:34:09.161Z,37.00
2017-10-02T05:36:37.289Z,34.60
2017-10-02T05:39:05.374Z,36.37
2017-10-02T05:41:33.473Z,37.80
2017-10-02T05:44:02.333Z,32.80
2017-10-02T05:46:30.428Z,42.83
2017-10-02T05:48:59.295Z,36.93
2017-10-02T05:51:27.384Z,39.73
2017-10-02T05:53:56.360Z,38.80
2017-10-02T05:56:24.835Z,34.40
2017-10-02T05:58:52.888Z,35.77
2017-10-02T06:01:20.977Z,31.30
2017-10-02T06:03:49.059Z,37.23
2017-10-02T06:06:17.179Z,36.97
2017-10-02T06:08:45.275Z,32.83
2017-10-02T06:11:14.141Z,39.90
2017-10-02T06:13:42.224Z,30.17
2017-10-02T06:16:11.082Z,26.37
2017-10-02T06:18:39.171Z,25.33
2017-10-02T06:21:07.261Z,32.53
2017-10-02T06:23:36.096Z,24.50
2017-10-02T06:26:04.187Z,33.77
2017-10-02T06:28:32.472Z,28.67
2017-10-02T06:31:01.373Z,23.97
2017-10-02T06:33:29.450Z,27.20
2017-10-02T06:35:58.304Z,27.87
2017-10-02T06:38:26.386Z,30.33
2017-10-02T06:40:54.471Z,23.87
2017-10-02T06:43:23.325Z,23.10
2017-10-02T06:45:51.411Z,25.27
2017-10-02T06:48:19.500Z,28.93
2017-10-02T06:50:48.368Z,23.03
2017-10-02T06:53:16.467Z,22.87
2017-10-02T06:55:45.315Z,16.97
2017-10-02T06:58:13.414Z,21.40
2017-10-02T07:00:42.275Z,17.37
2017-10-02T07:03:10.395Z,17.20
2017-10-02T07:05:38.480Z,18.67
2017-10-02T07:08:07.526Z,19.33
2017-10-02T07:10:35.607Z,13.67
2017-10-02T07:13:04.469Z,12.57
2017-10-02T07:15:32.542Z,14.30
2017-10-02T07:18:00.632Z,14.27
2017-10-02T07:20:28.723Z,12.40
2017-10-02T07:22:57.575Z,12.33
2017-10-02T07:25:25.663Z,12.53
2017-10-02T07:27:53.739Z,11.50
2017-10-02T07:30:22.590Z,9.93
2017-10-02T07:32:50.671Z,9.70
2017-10-02T07:35:18.761Z,9.83
2017-10-02T07:37:46.826Z,8.30
2017-10-02T07:40:14.928Z,10.13
2017-10-02T07:42:43.003Z,8.53
2017-10-02T07:45:11.083Z,10.07
2017-10-02T07:47:39.185Z,10.13
2017-10-02T07:50:07.255Z,8.80
2017-10-02T07:52:35.353Z,9.43
2017-10-02T07:55:03.430Z,9.67
2017-10-02T07:57:32.304Z,9.40
2017-10-02T08:00:01.163Z,10.80
2017-10-02T08:02:29.260Z,11.20
2017-10-02T08:04:57.352Z,13.07
2017-10-02T08:07:26.221Z,12.63
2017-10-02T08:09:55.228Z,10.10
2017-10-02T08:12:23.375Z,12.33
2017-10-02T08:14:51.736Z,10.37
2017-10-02T08:17:19.828Z,10.97
2017-10-02T08:19:49.436Z,9.47
2017-10-02T08:22:17.522Z,10.50
2017-10-02T08:24:46.391Z,10.10
2017-10-02T08:27:14.477Z,10.70
2017-10-02T08:29:42.852Z,12.37
2017-10-02T08:32:11.120Z,11.50
2017-10-02T08:34:39.210Z,13.20
2017-10-02T08:37:08.064Z,13.50
2017-10-02T08:39:36.167Z,14.70
2017-10-02T08:42:05.021Z,11.10
2017-10-02T08:44:33.111Z,12.80
2017-10-02T08:47:01.199Z,12.17
2017-10-02T08:49:30.051Z,11.90
2017-10-02T08:51:58.143Z,12.87
2017-10-02T08:54:26.232Z,13.07
2017-10-02T08:56:55.098Z,13.63
2017-10-02T08:59:23.191Z,11.33
2017-10-02T09:01:52.055Z,10.70
2017-10-02T09:04:20.151Z,11.37
2017-10-02T09:06:49.003Z,9.87
2017-10-02T09:09:17.087Z,11.87
2017-10-02T09:11:45.182Z,11.93
2017-10-02T09:14:14.040Z,12.23
2017-10-02T09:16:42.134Z,10.83
2017-10-02T09:19:10.223Z,8.40
2017-10-02T09:21:39.079Z,9.20
2017-10-02T09:24:07.164Z,9.47
2017-10-02T09:26:35.252Z,10.20
2017-10-02T09:29:04.151Z,10.50
2017-10-02T09:31:33.001Z,8.20
2017-10-02T09:34:01.297Z,10.33
2017-10-02T09:36:29.384Z,7.30
2017-10-02T09:38:58.242Z,10.23
2017-10-02T09:41:26.336Z,10.00
2017-10-02T09:43:55.191Z,8.27
2017-10-02T09:46:23.270Z,8.40
2017-10-02T09:48:53.115Z,8.73
2017-10-02T09:51:21.952Z,8.50
2017-10-02T09:53:50.034Z,7.77
2017-10-02T09:56:18.106Z,8.90
2017-10-02T09:58:46.196Z,7.67
2017-10-02T10:01:14.303Z,8.47
2017-10-02T10:03:42.399Z,8.30
2017-10-02T10:06:10.496Z,9.33
2017-10-02T10:08:38.663Z,8.97
2017-10-02T10:11:06.739Z,8.20
2017-10-02T10:13:34.815Z,7.60
2017-10-02T10:16:02.900Z,8.27
2017-10-02T10:18:31.738Z,8.10
2017-10-02T10:20:59.816Z,6.87
2017-10-02T10:23:27.896Z,9.00
2017-10-02T10:25:55.971Z,8.07
2017-10-02T10:28:24.054Z,6.90
2017-10-02T10:30:52.173Z,6.50
2017-10-02T10:33:20.244Z,8.17
2017-10-02T10:35:48.387Z,8.13
2017-10-02T10:38:16.479Z,7.47
2017-10-02T10:40:44.586Z,7.77
2017-10-02T10:43:14.624Z,8.30
2017-10-02T10:45:42.807Z,7.27
2017-10-02T10:48:11.653Z,7.27
2017-10-02T10:50:39.731Z,6.13
2017-10-02T10:53:07.808Z,7.33
2017-10-02T10:55:35.910Z,6.83
2017-10-02T10:58:04.890Z,7.80
2017-10-02T11:00:33.495Z,7.20
2017-10-02T11:03:01.641Z,7.70
2017-10-02T11:05:30.837Z,7.87
2017-10-02T11:08:00.162Z,7.00
2017-10-02T11:10:29.582Z,7.13
2017-10-02T11:12:57.795Z,7.67
2017-10-02T11:15:26.749Z,7.80
2017-10-02T11:17:54.850Z,7.07
2017-10-02T11:20:22.981Z,6.40
2017-10-02T11:22:51.119Z,6.70
2017-10-02T11:25:19.181Z,6.80
2017-10-02T11:27:47.347Z,6.37
2017-10-02T11:30:15.423Z,6.00
2017-10-02T11:32:43.608Z,5.70
2017-10-02T11:35:12.148Z,4.80
2017-10-02T11:37:40.628Z,5.40
2017-10-02T11:40:08.746Z,5.13
2017-10-02T11:42:37.603Z,4.53
2017-10-02T11:45:05.731Z,5.90
2017-10-02T11:47:34.554Z,5.70
2017-10-02T11:50:02.912Z,6.20
2017-10-02T11:52:31.136Z,6.30
2017-10-02T11:54:59.294Z,6.20
2017-10-02T11:57:27.604Z,6.50
2017-10-02T11:59:55.849Z,6.40
2017-10-02T12:02:25.427Z,5.53
2017-10-02T12:04:53.520Z,5.63
2017-10-02T12:07:21.582Z,7.17
2017-10-02T12:09:49.971Z,5.33
2017-10-02T12:12:18.047Z,6.47
2017-10-02T12:14:46.313Z,6.10
2017-10-02T12:17:15.894Z,4.60
2017-10-02T12:19:43.974Z,4.80
2017-10-02T12:22:12.171Z,4.50
2017-10-02T12:24:40.271Z,4.77
2017-10-02T12:27:08.342Z,6.30
2017-10-02T12:29:36.460Z,4.50
2017-10-02T12:32:04.542Z,4.53
2017-10-02T12:34:32.623Z,5.30
2017-10-02T12:37:00.818Z,5.47
2017-10-02T12:39:29.033Z,7.00
2017-10-02T12:41:57.123Z,5.90
2017-10-02T12:44:25.415Z,6.23
2017-10-02T12:46:53.500Z,6.00
2017-10-02T12:49:21.568Z,5.60
2017-10-02T12:51:49.656Z,7.43
2017-10-02T12:54:17.769Z,5.60
2017-10-02T12:56:45.839Z,5.53
2017-10-02T12:59:13.923Z,5.63
2017-10-02T13:01:41.999Z,5.63
2017-10-02T13:04:10.110Z,5.80
2017-10-02T13:06:39.856Z,6.10
2017-10-02T13:09:07.935Z,6.40
2017-10-02T13:11:36.015Z,7.13
2017-10-02T13:14:04.101Z,6.50
2017-10-02T13:16:32.176Z,6.73
2017-10-02T13:19:01.028Z,7.80
2017-10-02T13:21:29.108Z,8.43
2017-10-02T13:23:57.191Z,8.17
2017-10-02T13:26:25.854Z,6.83
2017-10-02T13:28:53.955Z,6.37
2017-10-02T13:31:22.056Z,6.27
2017-10-02T13:33:50.126Z,7.60
2017-10-02T13:36:18.237Z,6.90
2017-10-02T13:38:46.317Z,6.50
2017-10-02T13:41:14.408Z,7.60
2017-10-02T13:43:42.493Z,8.57
2017-10-02T13:46:11.343Z,6.93
2017-10-02T13:48:39.433Z,7.20
2017-10-02T13:51:07.594Z,9.30
2017-10-02T13:53:35.685Z,8.70
2017-10-02T13:56:03.835Z,8.97
2017-10-02T13:58:32.006Z,8.37
2017-10-02T14:01:00.180Z,8.33
2017-10-02T14:03:28.263Z,8.93
2017-10-02T14:05:56.353Z,7.57
2017-10-02T14:08:25.194Z,8.30
2017-10-02T14:10:53.287Z,9.00
2017-10-02T14:13:21.365Z,8.33
2017-10-02T14:15:50.360Z,7.57
2017-10-02T14:18:18.442Z,7.63
2017-10-02T14:20:46.552Z,7.83
2017-10-02T14:23:14.639Z,10.70
2017-10-02T14:25:42.724Z,8.63
2017-10-02T14:28:10.820Z,8.33
2017-10-02T14:30:40.751Z,8.17
2017-10-02T14:33:08.892Z,8.37
2017-10-02T14:35:36.971Z,8.97
2017-10-02T14:38:05.840Z,10.07
2017-10-02T14:40:33.929Z,8.33
2017-10-02T14:43:02.783Z,6.90
2017-10-02T14:45:30.852Z,6.37
2017-10-02T14:47:58.951Z,6.97
2017-10-02T14:50:27.028Z,8.10
2017-10-02T14:52:55.104Z,7.50
2017-10-02T14:55:23.976Z,8.60
2017-10-02T14:57:52.117Z,7.30
2017-10-02T15:00:20.206Z,7.73
2017-10-02T15:02:48.375Z,8.20
2017-10-02T15:05:16.462Z,7.10
2017-10-02T15:07:44.543Z,7.27
2017-10-02T15:10:13.407Z,7.70
2017-10-02T15:12:41.504Z,7.60
2017-10-02T15:15:09.771Z,7.07
2017-10-02T15:17:37.859Z,7.37
2017-10-02T15:20:05.951Z,8.37
2017-10-02T15:22:34.072Z,9.90
2017-10-02T15:25:02.151Z,8.80
2017-10-02T15:27:30.326Z,8.33
2017-10-02T15:29:58.462Z,7.93
2017-10-02T15:32:26.562Z,7.20
2017-10-02T15:34:54.643Z,7.70
2017-10-02T15:37:23.493Z,7.83
2017-10-02T15:39:51.571Z,11.10
2017-10-02T15:42:19.669Z,7.80
2017-10-02T15:44:47.915Z,7.27
2017-10-02T15:47:16.103Z,6.60
2017-10-02T15:49:44.371Z,8.03
2017-10-02T15:52:12.460Z,9.37
2017-10-02T15:54:41.312Z,8.20
2017-10-02T15:57:09.423Z,7.33
2017-10-02T15:59:37.510Z,8.30
2017-10-02T16:02:05.588Z,9.30
2017-10-02T16:04:33.687Z,9.03
2017-10-02T16:07:01.771Z,8.70
2017-10-02T16:09:33.016Z,9.17
2017-10-02T16:12:01.102Z,10.90
2017-10-02T16:14:29.192Z,10.37
2017-10-02T16:16:58.052Z,10.00
2017-10-02T16:19:26.157Z,9.53
2017-10-02T16:21:54.283Z,10.50
2017-10-02T16:24:22.359Z,8.20
2017-10-02T16:26:50.434Z,10.60
2017-10-02T16:29:18.575Z,11.53
2017-10-02T16:31:46.683Z,12.07
2017-10-02T16:34:14.799Z,11.00
2017-10-02T16:36:42.924Z,10.27
2017-10-02T16:39:11.018Z,10.00
2017-10-02T16:41:39.883Z,9.13
2017-10-02T16:44:07.969Z,8.53
2017-10-02T16:46:36.154Z,10.30
2017-10-02T16:49:05.011Z,10.40
2017-10-02T16:51:33.091Z,9.27
2017-10-02T16:54:01.182Z,9.27
2017-10-02T16:56:30.050Z,10.57
2017-10-02T16:58:58.134Z,11.00
2017-10-02T17:01:27.014Z,11.07
2017-10-02T17:03:55.115Z,10.37
2017-10-02T17:06:23.194Z,9.70
2017-10-02T17:08:51.294Z,10.77
2017-10-02T17:11:19.387Z,9.63
2017-10-02T17:13:47.482Z,12.70
2017-10-02T17:16:16.323Z,14.40
2017-10-02T17:18:44.406Z,11.30
2017-10-02T17:21:12.517Z,10.70
2017-10-02T17:23:41.378Z,10.57
2017-10-02T17:26:09.475Z,10.67
2017-10-02T17:28:38.598Z,10.80
2017-10-02T17:31:06.722Z,10.77
2017-10-02T17:33:34.803Z,10.40
2017-10-02T17:36:03.647Z,13.93
2017-10-02T17:38:31.735Z,11.23
2017-10-02T17:40:59.826Z,10.10
2017-10-02T17:43:27.922Z,9.53
2017-10-02T17:45:56.023Z,10.67
2017-10-02T17:48:24.230Z,9.90
2017-10-02T17:50:52.331Z,10.07
2017-10-02T17:53:20.424Z,10.87
2017-10-02T17:55:48.522Z,12.87
2017-10-02T17:58:16.597Z,8.87
2017-10-02T18:00:44.735Z,9.27
2017-10-02T18:03:12.836Z,11.37
2017-10-02T18:05:40.973Z,7.20
2017-10-02T18:08:09.064Z,21.17
2017-10-02T18:10:37.148Z,19.60
2017-10-02T18:13:05.231Z,10.30
2017-10-02T18:15:33.335Z,12.93
2017-10-02T18:18:02.296Z,7.50
2017-10-02T18:20:31.207Z,6.63
2017-10-02T18:22:59.266Z,8.20
2017-10-02T18:25:27.523Z,7.80
2017-10-02T18:27:55.616Z,10.17
2017-10-02T18:30:24.458Z,7.80
2017-10-02T18:32:52.543Z,7.87
2017-10-02T18:35:20.624Z,9.43
2017-10-02T18:37:48.744Z,8.00
2017-10-02T18:40:16.819Z,7.40
2017-10-02T18:42:44.914Z,7.20
2017-10-02T18:45:13.000Z,6.87
2017-10-02T18:47:41.103Z,7.37
2017-10-02T18:50:09.951Z,8.40
2017-10-02T18:52:38.024Z,8.47
2017-10-02T18:55:06.208Z,6.97
2017-10-02T18:57:35.360Z,9.80
2017-10-02T19:00:03.746Z,9.50
2017-10-02T19:02:31.961Z,9.03
2017-10-02T19:05:00.241Z,8.83
2017-10-02T19:07:28.383Z,10.97
2017-10-02T19:09:56.850Z,8.70
2017-10-02T19:12:24.979Z,14.90
2017-10-02T19:14:53.157Z,16.10
2017-10-02T19:17:22.008Z,15.20
2017-10-02T19:19:50.873Z,11.47
2017-10-02T19:22:19.756Z,12.00
2017-10-02T19:24:48.040Z,10.57
2017-10-02T19:27:16.338Z,10.93
2017-10-02T19:29:44.524Z,8.00
2017-10-02T19:32:12.975Z,8.50
2017-10-02T19:34:41.343Z,7.03
2017-10-02T19:37:09.576Z,7.70
2017-10-02T19:39:37.672Z,7.10
2017-10-02T19:42:05.744Z,6.50
2017-10-02T19:44:33.857Z,6.30
2017-10-02T19:47:02.755Z,6.60
2017-10-02T19:49:31.222Z,6.60
2017-10-02T19:51:59.403Z,5.37
2017-10-02T19:54:27.758Z,10.27
2017-10-02T19:56:56.153Z,14.20
2017-10-02T19:59:24.622Z,8.97
2017-10-02T20:01:52.727Z,8.80
2017-10-02T20:04:20.933Z,6.20
2017-10-02T20:06:49.083Z,6.53
2017-10-02T20:09:17.164Z,7.20
2017-10-02T20:11:45.310Z,4.90
2017-10-02T20:14:13.637Z,5.10
2017-10-02T20:16:41.736Z,5.53
2017-10-02T20:19:10.007Z,4.67
2017-10-02T20:21:38.507Z,4.20
2017-10-02T20:24:06.978Z,4.00
2017-10-02T20:26:35.133Z,4.27
2017-10-02T20:29:04.699Z,4.57
2017-10-02T20:31:32.819Z,4.13
2017-10-02T20:34:00.892Z,4.30
2017-10-02T20:36:28.972Z,4.00
2017-10-02T20:38:57.076Z,3.57
2017-10-02T20:41:25.142Z,4.70
2017-10-02T20:43:53.222Z,4.00
2017-10-02T20:46:21.312Z,4.27
2017-10-02T20:48:49.412Z,4.40
2017-10-02T20:51:17.483Z,3.73
2017-10-02T20:53:45.555Z,3.53
2017-10-02T20:56:13.635Z,3.40
2017-10-02T20:58:43.315Z,3.30
2017-10-02T21:01:11.407Z,3.40
2017-10-02T21:03:39.499Z,3.43
2017-10-02T21:06:08.353Z,3.47
2017-10-02T21:08:36.438Z,3.53
2017-10-02T21:11:04.545Z,3.83
2017-10-02T21:13:32.679Z,4.20
2017-10-02T21:16:00.760Z,3.47
2017-10-02T21:18:29.006Z,3.20
2017-10-02T21:20:57.100Z,3.10
2017-10-02T21:23:25.182Z,3.90
2017-10-02T21:25:53.298Z,4.07
2017-10-02T21:28:21.382Z,3.40
2017-10-02T21:30:49.458Z,3.90
2017-10-02T21:33:17.658Z,4.57
2017-10-02T21:35:47.224Z,3.90
2017-10-02T21:38:15.329Z,4.50
2017-10-02T21:40:43.691Z,3.70
2017-10-02T21:43:11.767Z,3.90
2017-10-02T21:45:39.838Z,3.90
2017-10-02T21:48:07.916Z,4.67
2017-10-02T21:50:36.758Z,4.60
2017-10-02T21:53:04.840Z,4.50
2017-10-02T21:55:32.937Z,4.10
2017-10-02T21:58:02.526Z,4.57
2017-10-02T22:00:30.606Z,5.70
2017-10-02T22:02:58.979Z,5.77
2017-10-02T22:05:28.580Z,4.53
2017-10-02T22:07:56.650Z,4.83
2017-10-02T22:10:24.739Z,4.57
2017-10-02T22:12:52.825Z,4.43
2017-10-02T22:15:21.683Z,5.07
2017-10-02T22:17:49.763Z,4.83
2017-10-02T22:20:17.876Z,4.80
2017-10-02T22:22:45.950Z,5.00
2017-10-02T22:25:14.045Z,4.90
2017-10-02T22:27:42.126Z,5.00
2017-10-02T22:30:10.202Z,5.67
2017-10-02T22:32:38.291Z,4.93
2017-10-02T22:35:06.361Z,4.10
2017-10-02T22:37:34.438Z,4.53
2017-10-02T22:40:03.298Z,4.83
2017-10-02T22:42:31.380Z,4.27
2017-10-02T22:44:59.449Z,4.50
2017-10-02T22:47:27.545Z,4.80
2017-10-02T22:49:55.724Z,4.93
2017-10-02T22:52:24.691Z,4.40
2017-10-02T22:54:52.953Z,4.23
2017-10-02T22:57:21.047Z,5.13
2017-10-02T22:59:49.187Z,5.07
2017-10-02T23:02:17.265Z,4.70
2017-10-02T23:04:46.140Z,4.80
2017-10-02T23:07:14.233Z,3.90
2017-10-02T23:09:42.323Z,3.57
2017-10-02T23:12:11.156Z,4.27
2017-10-02T23:14:39.246Z,4.03
2017-10-02T23:17:07.336Z,4.33
2017-10-02T23:19:35.515Z,3.50
2017-10-02T23:22:03.597Z,4.07
2017-10-02T23:24:31.730Z,3.70
2017-10-02T23:27:00.559Z,4.50
2017-10-02T23:29:28.640Z,3.80
2017-10-02T23:31:56.745Z,4.30
2017-10-02T23:34:24.827Z,4.13
2017-10-02T23:36:52.919Z,3.20
2017-10-02T23:39:21.007Z,3.80
2017-10-02T23:41:49.863Z,3.80
2017-10-02T23:44:17.935Z,4.23
2017-10-02T23:46:46.035Z,4.60
2017-10-02T23:49:14.943Z,3.60
2017-10-02T23:51:43.048Z,5.70
2017-10-02T23:54:11.114Z,4.40
2017-10-02T23:56:39.307Z,4.50
2017-10-02T23:59:08.147Z,5.03
